Time;durP1;ratioP1;P1;durP2;ratioP2;P2;SDS_P1;SDS_P2;PMS_P1;PMS_P2;Temp;Humidity;BMP_temperature;BMP_pressure;BME280_temperature;BME280_humidity;BME280_pressure;Samples;Min_cycle;Max_cycle;Signal;HPM_P1;HPM_P2
2023/04/06 00:00:37;;;;;;;12.63;8.45;;;9.30;99.90;;;;;;5060125;28;20039;-73
2023/04/06 00:03:03;;;;;;;11.88;8.13;;;9.40;99.90;;;;;;5069147;28;20321;-73
2023/04/06 00:05:30;;;;;;;9.82;7.38;;;9.40;99.90;;;;;;5090875;28;20481;-73
2023/04/06 00:07:57;;;;;;;11.57;7.35;;;9.40;99.90;;;;;;5063558;28;20570;-73
2023/04/06 00:10:23;;;;;;;10.25;7.32;;;9.30;99.90;;;;;;5057870;28;20032;-73
2023/04/06 00:12:48;;;;;;;11.32;8.25;;;9.30;99.90;;;;;;5064678;28;20502;-73
2023/04/06 00:15:14;;;;;;;9.95;8.00;;;9.30;99.90;;;;;;5095709;27;20036;-73
2023/04/06 00:17:40;;;;;;;10.20;7.60;;;9.30;99.90;;;;;;5066945;28;20451;-72
2023/04/06 00:20:06;;;;;;;8.18;6.05;;;9.30;99.90;;;;;;5067460;28;20031;-72
2023/04/06 00:22:33;;;;;;;8.07;6.35;;;9.30;99.90;;;;;;5065118;28;20063;-72
2023/04/06 00:24:58;;;;;;;7.43;5.13;;;9.30;99.90;;;;;;5061225;28;20529;-73
2023/04/06 00:27:24;;;;;;;8.15;5.35;;;9.30;99.90;;;;;;5071861;28;20029;-72
2023/04/06 00:29:50;;;;;;;6.25;4.93;;;9.30;99.90;;;;;;5069926;28;20024;-72
2023/04/06 00:32:15;;;;;;;7.68;4.85;;;9.30;99.90;;;;;;5063162;28;20036;-72
2023/04/06 00:34:41;;;;;;;7.10;5.03;;;9.30;99.90;;;;;;5060223;28;20029;-72
2023/04/06 00:37:07;;;;;;;11.05;5.85;;;9.30;99.90;;;;;;5061939;28;20036;-72
2023/04/06 00:39:32;;;;;;;7.25;5.50;;;9.30;99.90;;;;;;5071052;28;20032;-72
2023/04/06 00:41:58;;;;;;;8.10;6.20;;;9.30;99.90;;;;;;5056744;28;20286;-72
2023/04/06 00:44:24;;;;;;;8.25;5.60;;;9.30;99.90;;;;;;5061450;28;20033;-73
2023/04/06 00:46:50;;;;;;;7.80;5.90;;;9.30;99.90;;;;;;5062804;28;20470;-72
2023/04/06 00:49:15;;;;;;;8.70;5.85;;;9.30;99.90;;;;;;5061519;28;20123;-72
2023/04/06 00:51:41;;;;;;;8.70;6.38;;;9.30;99.90;;;;;;5060059;28;20028;-72
2023/04/06 00:54:07;;;;;;;10.40;6.78;;;9.30;99.90;;;;;;5070339;28;20039;-72
2023/04/06 00:56:32;;;;;;;9.80;7.63;;;9.30;99.90;;;;;;5060127;28;20052;-72
2023/04/06 00:58:58;;;;;;;10.02;7.40;;;9.30;99.90;;;;;;5072192;28;20887;-72
2023/04/06 01:01:24;;;;;;;9.70;7.32;;;9.30;99.90;;;;;;5065989;28;20131;-72
2023/04/06 01:03:50;;;;;;;10.93;7.65;;;9.30;99.90;;;;;;5059527;28;20047;-72
2023/04/06 01:06:16;;;;;;;8.80;6.82;;;9.30;99.90;;;;;;5061441;28;20118;-72
2023/04/06 01:08:42;;;;;;;13.02;7.55;;;9.30;99.90;;;;;;5067189;28;20060;-72
2023/04/06 01:11:07;;;;;;;8.07;6.50;;;9.30;99.90;;;;;;5056316;28;20098;-72
2023/04/06 01:13:33;;;;;;;11.60;5.63;;;9.30;99.90;;;;;;5068008;28;20138;-73
2023/04/06 01:15:59;;;;;;;8.90;5.45;;;9.30;99.90;;;;;;5062348;28;20396;-72
2023/04/06 01:18:28;;;;;;;5.90;4.50;;;9.30;99.90;;;;;;5061803;28;20480;-72
2023/04/06 01:20:54;;;;;;;5.20;3.90;;;9.30;99.90;;;;;;5063850;28;20028;-73
2023/04/06 01:23:20;;;;;;;7.25;4.65;;;9.30;99.90;;;;;;5074524;28;20028;-72
2023/04/06 01:25:45;;;;;;;6.68;4.07;;;9.30;99.90;;;;;;5059053;28;20028;-72
2023/04/06 01:28:11;;;;;;;4.43;3.97;;;9.30;99.90;;;;;;5066774;28;20055;-72
2023/04/06 01:30:37;;;;;;;5.38;4.20;;;9.30;99.90;;;;;;5065154;28;20064;-73
2023/04/06 01:33:02;;;;;;;3.95;3.53;;;9.30;99.90;;;;;;5067875;28;20132;-72
2023/04/06 01:35:28;;;;;;;7.60;3.53;;;9.30;99.90;;;;;;5100399;27;20436;-72
2023/04/06 01:37:54;;;;;;;6.95;4.10;;;9.30;99.90;;;;;;5059383;28;20035;-73
2023/04/06 01:40:20;;;;;;;3.85;3.42;;;9.30;99.90;;;;;;5062369;28;20024;-72
2023/04/06 01:42:46;;;;;;;3.08;2.45;;;9.30;99.90;;;;;;5061561;28;20098;-72
2023/04/06 01:45:12;;;;;;;7.75;3.10;;;9.30;99.90;;;;;;5059971;28;20036;-72
2023/04/06 01:47:37;;;;;;;4.45;2.33;;;9.30;99.90;;;;;;5074767;28;20028;-72
2023/04/06 01:50:06;;;;;;;5.68;2.55;;;9.30;99.90;;;;;;5061902;28;20308;-72
2023/04/06 01:52:32;;;;;;;5.88;3.28;;;9.30;99.90;;;;;;5063164;28;20138;-72
2023/04/06 01:54:58;;;;;;;3.90;2.97;;;9.30;99.90;;;;;;5062310;28;20179;-72
2023/04/06 01:57:25;;;;;;;7.43;3.13;;;9.30;99.90;;;;;;5059282;28;20081;-73
2023/04/06 01:59:51;;;;;;;6.03;3.38;;;9.30;99.90;;;;;;5067768;28;20036;-72
2023/04/06 02:02:16;;;;;;;6.13;3.40;;;9.30;99.90;;;;;;5067138;28;20070;-72
2023/04/06 02:04:42;;;;;;;6.03;3.78;;;9.30;99.90;;;;;;5061622;28;20462;-72
2023/04/06 02:07:08;;;;;;;7.25;4.13;;;9.20;99.90;;;;;;5066448;28;20024;-74
2023/04/06 02:09:35;;;;;;;10.15;3.83;;;9.20;99.90;;;;;;5068190;28;20032;-72
2023/04/06 02:12:01;;;;;;;6.03;3.67;;;9.20;99.90;;;;;;5064617;28;20039;-72
2023/04/06 02:14:27;;;;;;;5.35;3.58;;;9.30;99.90;;;;;;5061557;28;20058;-72
2023/04/06 02:16:52;;;;;;;7.78;3.78;;;9.30;99.90;;;;;;5058795;28;20025;-73
2023/04/06 02:19:18;;;;;;;8.38;3.83;;;9.20;99.90;;;;;;5062101;28;20031;-71
2023/04/06 02:21:44;;;;;;;5.00;3.80;;;9.20;99.90;;;;;;5067848;28;20034;-73
2023/04/06 02:24:10;;;;;;;5.50;4.47;;;9.30;99.90;;;;;;5065940;28;20484;-72
2023/04/06 02:26:35;;;;;;;5.53;3.67;;;9.30;99.90;;;;;;5064898;28;20031;-72
2023/04/06 02:29:02;;;;;;;6.80;3.42;;;9.30;99.90;;;;;;5058950;28;20530;-73
2023/04/06 02:31:28;;;;;;;8.05;3.67;;;9.40;99.90;;;;;;5063819;28;20119;-73
2023/04/06 02:33:53;;;;;;;5.15;3.90;;;9.30;99.90;;;;;;5069014;28;20333;-73
2023/04/06 02:36:19;;;;;;;6.20;4.35;;;9.30;99.90;;;;;;5057722;28;20479;-72
2023/04/06 02:38:45;;;;;;;7.20;4.38;;;9.30;99.90;;;;;;5068384;28;20111;-72
2023/04/06 02:41:10;;;;;;;4.82;3.90;;;9.30;99.90;;;;;;5059529;28;20032;-72
2023/04/06 02:43:36;;;;;;;5.68;4.20;;;9.30;99.90;;;;;;5064802;28;20028;-72
2023/04/06 02:46:02;;;;;;;4.93;3.42;;;9.30;99.90;;;;;;5077492;28;20063;-72
2023/04/06 02:48:27;;;;;;;6.88;3.20;;;9.30;99.90;;;;;;5062607;28;20106;-72
2023/04/06 02:50:53;;;;;;;4.25;3.15;;;9.30;99.90;;;;;;5059545;28;20508;-72
2023/04/06 02:53:18;;;;;;;6.03;3.85;;;9.30;99.90;;;;;;5062360;28;20461;-72
2023/04/06 02:55:44;;;;;;;6.18;3.97;;;9.30;99.90;;;;;;5061939;28;20040;-73
2023/04/06 02:58:10;;;;;;;4.53;3.90;;;9.30;99.90;;;;;;5062011;28;20143;-72
2023/04/06 03:00:36;;;;;;;6.13;4.70;;;9.30;99.90;;;;;;5061714;28;20510;-72
2023/04/06 03:03:02;;;;;;;7.57;4.10;;;9.30;99.90;;;;;;5059614;28;20050;-72
2023/04/06 03:05:27;;;;;;;5.13;4.18;;;9.30;99.90;;;;;;5063120;28;20420;-73
2023/04/06 03:07:53;;;;;;;6.75;3.20;;;9.30;99.90;;;;;;5062469;28;20431;-72
2023/04/06 03:10:19;;;;;;;3.75;2.78;;;9.30;99.90;;;;;;5063042;28;20047;-72
2023/04/06 03:12:44;;;;;;;4.38;3.03;;;9.20;99.90;;;;;;5099591;27;20583;-72
2023/04/06 03:15:11;;;;;;;4.25;3.13;;;9.20;99.90;;;;;;5062795;28;20031;-72
2023/04/06 03:17:36;;;;;;;4.00;3.03;;;9.20;99.90;;;;;;5066797;28;20086;-73
2023/04/06 03:20:03;;;;;;;5.13;3.20;;;9.30;99.90;;;;;;5061770;28;20032;-73
2023/04/06 03:22:29;;;;;;;5.10;2.80;;;9.30;99.90;;;;;;5058132;28;20036;-73
2023/04/06 03:24:55;;;;;;;5.25;2.65;;;9.30;99.90;;;;;;5059017;28;20476;-72
2023/04/06 03:27:20;;;;;;;5.07;2.85;;;9.30;99.90;;;;;;5064517;28;20024;-72
2023/04/06 03:29:46;;;;;;;5.70;2.95;;;9.30;99.90;;;;;;5064817;28;20110;-72
2023/04/06 03:32:12;;;;;;;4.75;3.28;;;9.30;99.90;;;;;;5063812;28;20035;-72
2023/04/06 03:34:38;;;;;;;4.72;2.95;;;9.30;99.90;;;;;;5067602;28;20095;-73
2023/04/06 03:37:04;;;;;;;7.47;3.72;;;9.40;99.90;;;;;;5057166;28;20467;-72
2023/04/06 03:39:30;;;;;;;6.63;3.88;;;9.40;99.90;;;;;;5058665;28;20096;-72
2023/04/06 03:41:56;;;;;;;7.68;2.95;;;9.40;99.90;;;;;;5061040;28;20392;-72
2023/04/06 03:44:21;;;;;;;5.10;2.95;;;9.40;99.90;;;;;;5059823;28;20071;-74
2023/04/06 03:46:47;;;;;;;6.45;3.13;;;9.50;99.90;;;;;;5064972;28;20034;-74
2023/04/06 03:49:12;;;;;;;6.60;3.10;;;9.40;99.90;;;;;;5061128;28;20255;-74
2023/04/06 03:51:38;;;;;;;3.33;2.10;;;9.50;99.90;;;;;;5066263;28;20391;-75
2023/04/06 03:54:04;;;;;;;1.92;1.60;;;9.50;99.90;;;;;;5060705;28;21559;-74
2023/04/06 03:56:29;;;;;;;3.28;1.35;;;9.50;99.90;;;;;;5064431;28;20550;-73
2023/04/06 03:58:55;;;;;;;1.45;1.35;;;9.50;99.90;;;;;;5061558;28;20426;-74
2023/04/06 04:01:21;;;;;;;3.67;1.60;;;9.50;99.90;;;;;;5062564;28;20067;-74
2023/04/06 04:03:46;;;;;;;3.15;2.15;;;9.60;99.90;;;;;;5068668;28;20039;-74
2023/04/06 04:06:12;;;;;;;3.90;2.67;;;9.50;99.90;;;;;;5047870;22;20147;-74
2023/04/06 04:08:37;;;;;;;5.88;2.83;;;9.60;99.90;;;;;;5039049;28;20519;-74
2023/04/06 04:11:03;;;;;;;5.50;3.47;;;9.60;99.90;;;;;;5033245;28;20044;-74
2023/04/06 04:13:29;;;;;;;10.43;4.63;;;9.60;99.90;;;;;;5033690;28;20699;-74
2023/04/06 04:15:54;;;;;;;4.45;2.67;;;9.50;99.90;;;;;;5032810;28;20271;-74
2023/04/06 04:18:20;;;;;;;4.82;2.90;;;9.50;99.90;;;;;;5033545;28;20036;-75
2023/04/06 04:20:46;;;;;;;4.88;2.60;;;9.60;99.90;;;;;;5032790;28;20116;-74
2023/04/06 04:23:11;;;;;;;3.45;2.35;;;9.60;99.90;;;;;;5036721;28;20484;-75
2023/04/06 04:25:37;;;;;;;4.60;2.70;;;9.60;99.90;;;;;;5034341;28;20492;-74
2023/04/06 04:28:03;;;;;;;3.70;2.50;;;9.60;99.90;;;;;;5033392;28;20040;-74
2023/04/06 04:30:28;;;;;;;3.88;2.38;;;9.60;99.90;;;;;;5036305;28;20047;-74
2023/04/06 04:32:54;;;;;;;7.95;3.50;;;9.60;99.90;;;;;;5036634;28;20036;-74
2023/04/06 04:35:20;;;;;;;7.72;3.92;;;9.60;99.90;;;;;;5032936;28;20064;-74
2023/04/06 04:37:45;;;;;;;6.05;4.07;;;9.60;99.90;;;;;;5038503;28;20029;-75
2023/04/06 04:40:11;;;;;;;5.13;4.25;;;9.60;99.90;;;;;;5036387;28;20043;-75
2023/04/06 04:42:37;;;;;;;7.18;5.03;;;9.60;99.90;;;;;;5037984;28;20732;-75
2023/04/06 04:45:03;;;;;;;7.05;4.68;;;9.60;99.90;;;;;;5039136;28;20431;-75
2023/04/06 04:47:29;;;;;;;6.55;4.95;;;9.60;99.90;;;;;;5039723;28;20624;-75
2023/04/06 04:49:54;;;;;;;7.20;4.45;;;9.60;99.90;;;;;;5040083;28;20037;-75
2023/04/06 04:52:20;;;;;;;6.43;4.45;;;9.70;99.90;;;;;;5042337;28;20090;-75
2023/04/06 04:54:46;;;;;;;6.13;4.95;;;9.70;99.90;;;;;;5039711;28;20036;-75
2023/04/06 04:57:12;;;;;;;6.63;4.72;;;9.60;99.90;;;;;;5039535;28;20083;-75
2023/04/06 04:59:38;;;;;;;6.63;4.55;;;9.70;99.90;;;;;;5043172;28;20061;-75
2023/04/06 05:02:03;;;;;;;5.90;4.57;;;9.80;99.90;;;;;;5041393;28;20063;-75
2023/04/06 05:04:29;;;;;;;7.82;4.65;;;9.80;99.90;;;;;;5039663;28;20404;-74
2023/04/06 05:07:08;;;;;;;6.65;4.40;;;9.80;99.90;;;;;;5039214;28;20055;-74
2023/04/06 05:09:34;;;;;;;9.80;5.72;;;9.80;99.90;;;;;;5041845;28;20421;-75
2023/04/06 05:12:00;;;;;;;8.65;5.85;;;9.80;99.90;;;;;;5038352;28;20036;-75
2023/04/06 05:14:26;;;;;;;11.70;6.40;;;9.90;99.90;;;;;;5038019;28;20036;-75
2023/04/06 05:16:52;;;;;;;12.57;6.80;;;9.90;99.90;;;;;;5039391;28;20089;-74
2023/04/06 05:19:18;;;;;;;13.93;6.85;;;9.90;99.90;;;;;;5038339;28;20056;-75
2023/04/06 05:21:44;;;;;;;12.95;8.57;;;9.90;99.90;;;;;;5036645;28;20041;-75
2023/04/06 05:24:10;;;;;;;15.60;8.13;;;9.90;99.90;;;;;;5040225;28;20254;-75
2023/04/06 05:26:35;;;;;;;17.60;8.60;;;9.90;99.90;;;;;;5039242;28;20444;-75
2023/04/06 05:29:01;;;;;;;16.08;8.77;;;9.90;99.90;;;;;;5044837;28;20822;-75
2023/04/06 05:31:27;;;;;;;16.27;8.63;;;10.00;99.90;;;;;;5035805;28;20041;-75
2023/04/06 05:33:53;;;;;;;15.15;8.48;;;10.00;99.90;;;;;;5039277;28;20060;-75
2023/04/06 05:36:19;;;;;;;14.38;8.65;;;10.00;99.90;;;;;;5040647;28;20056;-75
2023/04/06 05:38:44;;;;;;;14.30;8.18;;;10.00;99.90;;;;;;5039111;28;20082;-75
2023/04/06 05:41:10;;;;;;;15.80;8.60;;;10.10;99.90;;;;;;5038240;28;20028;-75
2023/04/06 05:43:36;;;;;;;17.15;8.73;;;10.10;99.90;;;;;;5037369;28;20029;-75
2023/04/06 05:46:02;;;;;;;17.30;7.93;;;10.10;99.90;;;;;;5038868;28;20424;-75
2023/04/06 05:48:28;;;;;;;17.17;7.28;;;10.10;99.90;;;;;;5038510;28;20060;-75
2023/04/06 05:50:55;;;;;;;13.68;7.57;;;10.10;99.90;;;;;;5039759;28;20127;-75
2023/04/06 05:53:21;;;;;;;14.88;8.18;;;10.10;99.90;;;;;;5038337;28;20024;-75
2023/04/06 05:55:47;;;;;;;13.65;7.50;;;10.10;99.90;;;;;;5040942;28;20108;-75
2023/04/06 05:58:13;;;;;;;16.35;7.13;;;10.20;99.90;;;;;;5036417;28;20182;-75
2023/04/06 06:00:38;;;;;;;13.20;6.55;;;10.20;99.90;;;;;;5034142;28;20127;-76
2023/04/06 06:03:05;;;;;;;12.02;5.63;;;10.30;99.90;;;;;;5029573;28;20024;-76
2023/04/06 06:05:31;;;;;;;9.88;6.22;;;10.30;99.90;;;;;;5035857;28;20554;-75
2023/04/06 06:07:57;;;;;;;14.38;6.28;;;10.30;99.90;;;;;;5046632;28;20057;-75
2023/04/06 06:10:23;;;;;;;16.55;6.97;;;10.30;99.90;;;;;;5036233;28;20033;-75
2023/04/06 06:12:48;;;;;;;14.77;6.97;;;10.30;99.90;;;;;;5035659;28;20029;-75
2023/04/06 06:15:14;;;;;;;15.95;6.97;;;10.30;99.90;;;;;;5026247;28;20064;-75
2023/04/06 06:17:40;;;;;;;17.35;7.57;;;10.30;99.90;;;;;;5023664;28;20377;-76
2023/04/06 06:20:07;;;;;;;14.73;7.50;;;10.40;99.90;;;;;;5025031;28;20425;-75
2023/04/06 06:22:33;;;;;;;13.48;7.70;;;10.40;99.90;;;;;;5031109;28;20040;-75
2023/04/06 06:24:58;;;;;;;18.77;7.85;;;10.40;99.90;;;;;;5041100;28;20560;-76
2023/04/06 06:27:24;;;;;;;15.10;8.05;;;10.50;99.90;;;;;;5039268;28;20053;-75
2023/04/06 06:29:49;;;;;;;22.05;8.10;;;10.50;99.90;;;;;;5041044;28;20451;-75
2023/04/06 06:32:15;;;;;;;22.70;7.75;;;10.60;99.90;;;;;;5038237;28;20483;-75
2023/04/06 06:34:41;;;;;;;14.48;6.78;;;10.60;99.90;;;;;;5036228;28;20022;-75
2023/04/06 06:37:06;;;;;;;12.48;6.95;;;10.70;99.90;;;;;;5024987;28;20032;-75
2023/04/06 06:39:32;;;;;;;10.35;6.60;;;10.70;99.90;;;;;;5038039;28;20100;-75
2023/04/06 06:42:00;;;;;;;9.95;6.10;;;10.70;99.90;;;;;;5038232;28;20033;-75
2023/04/06 06:44:26;;;;;;;13.20;7.68;;;10.80;99.90;;;;;;5036839;28;20072;-75
2023/04/06 06:46:52;;;;;;;14.18;7.90;;;10.80;99.90;;;;;;5035071;28;20056;-75
2023/04/06 06:49:18;;;;;;;17.52;8.60;;;10.80;99.90;;;;;;5035449;28;20024;-75
2023/04/06 06:51:44;;;;;;;10.40;7.60;;;10.90;99.90;;;;;;5038627;28;20047;-74
2023/04/06 06:54:09;;;;;;;201.82;92.40;;;10.90;99.90;;;;;;5040388;28;20025;-75
2023/04/06 06:56:37;;;;;;;15.00;9.05;;;10.90;99.90;;;;;;5040208;28;20033;-75
2023/04/06 06:59:03;;;;;;;15.35;6.95;;;11.00;99.90;;;;;;5044768;28;20511;-75
2023/04/06 07:01:29;;;;;;;14.32;6.82;;;11.00;99.90;;;;;;5040512;28;20223;-75
2023/04/06 07:03:55;;;;;;;10.52;6.85;;;11.10;99.90;;;;;;5040258;28;20154;-76
2023/04/06 07:06:20;;;;;;;10.75;6.18;;;11.10;99.90;;;;;;5039866;28;20056;-75
2023/04/06 07:08:46;;;;;;;7.25;5.38;;;11.10;99.90;;;;;;5040302;28;20064;-75
2023/04/06 07:11:12;;;;;;;11.38;5.22;;;11.20;99.90;;;;;;5038542;28;20102;-75
2023/04/06 07:13:37;;;;;;;7.55;5.47;;;11.20;99.90;;;;;;5036989;28;20028;-75
2023/04/06 07:16:03;;;;;;;9.05;4.97;;;11.20;99.90;;;;;;5033340;28;20656;-75
2023/04/06 07:18:29;;;;;;;6.75;5.18;;;11.30;99.90;;;;;;5023635;28;20029;-74
2023/04/06 07:20:55;;;;;;;9.10;5.22;;;11.50;99.90;;;;;;5025523;28;20405;-75
2023/04/06 07:23:20;;;;;;;8.50;5.20;;;11.80;99.90;;;;;;5021706;28;20021;-75
2023/04/06 07:25:46;;;;;;;8.48;4.75;;;12.10;99.90;;;;;;5025962;28;20035;-75
2023/04/06 07:28:12;;;;;;;6.57;4.47;;;12.30;99.90;;;;;;5019583;28;20476;-75
2023/04/06 07:30:38;;;;;;;5.72;3.80;;;12.60;99.90;;;;;;5032134;28;20496;-75
2023/04/06 07:33:05;;;;;;;5.20;3.90;;;12.80;99.90;;;;;;5031231;28;20079;-75
2023/04/06 07:35:31;;;;;;;7.25;4.10;;;12.90;99.90;;;;;;5032325;28;20032;-75
2023/04/06 07:37:56;;;;;;;5.60;3.50;;;12.90;99.90;;;;;;5038616;28;20032;-75
2023/04/06 07:40:22;;;;;;;4.35;3.42;;;12.90;99.90;;;;;;5037576;28;20468;-75
2023/04/06 07:42:48;;;;;;;5.07;4.20;;;12.90;99.90;;;;;;5036135;28;20035;-74
2023/04/06 07:45:15;;;;;;;6.18;4.18;;;13.00;99.90;;;;;;5036120;28;20033;-75
2023/04/06 07:47:40;;;;;;;119.70;79.57;;;13.10;99.90;;;;;;5035186;28;20139;-74
2023/04/06 07:50:06;;;;;;;44.28;23.98;;;13.10;99.90;;;;;;5038439;28;20432;-75
2023/04/06 07:52:32;;;;;;;7.13;3.45;;;13.00;99.90;;;;;;5023872;28;20025;-75
2023/04/06 07:54:59;;;;;;;6.75;6.13;;;12.90;99.90;;;;;;5023956;28;20094;-74
2023/04/06 07:57:24;;;;;;;4.10;3.40;;;12.80;99.90;;;;;;5023861;28;20079;-74
2023/04/06 07:59:50;;;;;;;4.90;2.92;;;12.80;99.90;;;;;;5020232;28;20119;-74
2023/04/06 08:02:16;;;;;;;407.63;207.95;;;12.70;99.90;;;;;;5026704;28;20079;-75
2023/04/06 08:04:42;;;;;;;14.90;8.13;;;12.80;99.90;;;;;;5036676;28;20291;-75
2023/04/06 08:07:07;;;;;;;4.22;3.70;;;13.00;99.90;;;;;;5039704;28;20047;-75
2023/04/06 08:09:33;;;;;;;4.97;3.13;;;13.10;99.90;;;;;;5039547;28;20579;-78
2023/04/06 08:11:58;;;;;;;5.22;2.90;;;13.20;99.90;;;;;;5037233;28;20187;-76
2023/04/06 08:14:24;;;;;;;4.53;3.10;;;13.50;99.90;;;;;;5035328;28;20033;-75
2023/04/06 08:16:50;;;;;;;4.07;2.80;;;13.70;99.90;;;;;;5032253;28;20048;-75
2023/04/06 08:19:17;;;;;;;5.93;2.65;;;13.80;99.90;;;;;;5028497;28;20357;-75
2023/04/06 08:21:43;;;;;;;5.22;2.28;;;14.00;99.90;;;;;;5026397;28;20025;-75
2023/04/06 08:24:08;;;;;;;2.97;2.03;;;14.10;99.90;;;;;;5028375;28;20063;-74
2023/04/06 08:26:34;;;;;;;5.80;2.10;;;14.20;99.90;;;;;;5020995;28;20104;-75
2023/04/06 08:29:00;;;;;;;5.03;2.03;;;14.50;99.90;;;;;;5023361;28;20462;-75
2023/04/06 08:31:26;;;;;;;2.75;1.42;;;16.70;99.90;;;;;;5032087;28;20333;-75
2023/04/06 08:33:52;;;;;;;2.50;0.90;;;19.00;98.10;;;;;;5032120;28;20420;-72
2023/04/06 08:36:22;;;;;;;3.22;0.82;;;20.30;87.80;;;;;;5032282;28;20519;-75
2023/04/06 08:38:48;;;;;;;2.57;0.70;;;20.60;79.50;;;;;;5034341;28;20432;-75
2023/04/06 08:41:15;;;;;;;3.38;1.00;;;20.40;77.20;;;;;;5041512;28;20036;-72
2023/04/06 08:43:47;;;;;;;2.92;1.05;;;20.20;84.10;;;;;;5047304;28;20457;-76
2023/04/06 08:46:13;;;;;;;3.72;0.77;;;19.70;86.30;;;;;;5035807;28;20032;-76
2023/04/06 08:48:40;;;;;;;1.92;0.70;;;18.80;88.80;;;;;;5042720;28;20033;-75
2023/04/06 08:51:06;;;;;;;2.80;0.88;;;18.10;94.20;;;;;;5036197;28;20048;-72
2023/04/06 08:53:31;;;;;;;0.98;0.57;;;17.50;97.60;;;;;;5038998;28;20025;-76
2023/04/06 08:55:59;;;;;;;3.47;1.63;;;17.20;98.40;;;;;;5032474;28;20370;-75
2023/04/06 08:58:28;;;;;;;3.20;1.10;;;16.80;99.90;;;;;;5043191;28;20027;-75
2023/04/06 09:00:53;;;;;;;5.35;1.00;;;16.80;99.90;;;;;;5039018;28;20045;-72
2023/04/06 09:03:21;;;;;;;2.20;0.77;;;17.10;99.90;;;;;;5037670;28;20123;-75
2023/04/06 09:05:47;;;;;;;4.57;1.15;;;17.50;99.80;;;;;;5039773;28;20361;-75
2023/04/06 09:08:13;;;;;;;5.00;1.20;;;17.30;96.90;;;;;;5032810;28;20417;-75
2023/04/06 09:10:42;;;;;;;5.85;1.10;;;17.00;98.70;;;;;;5037450;28;20037;-75
2023/04/06 09:13:09;;;;;;;3.40;0.90;;;16.90;99.90;;;;;;5037840;28;20021;-75
2023/04/06 09:15:35;;;;;;;3.38;0.98;;;16.50;99.00;;;;;;5039678;28;20086;-75
2023/04/06 09:18:01;;;;;;;3.85;0.90;;;16.20;99.90;;;;;;5034611;28;20506;-75
2023/04/06 09:20:28;;;;;;;4.15;1.05;;;16.10;99.90;;;;;;5032605;28;20563;-75
2023/04/06 09:22:55;;;;;;;4.40;1.30;;;16.20;99.90;;;;;;5027546;28;20087;-75
2023/04/06 09:25:23;;;;;;;4.97;1.33;;;16.30;99.90;;;;;;5023346;28;20545;-75
2023/04/06 09:27:57;;;;;;;4.57;1.25;;;16.10;99.90;;;;;;5034420;28;20040;-76
2023/04/06 09:30:24;;;;;;;4.97;1.40;;;15.60;99.90;;;;;;5024608;28;20067;-75
2023/04/06 09:32:56;;;;;;;3.22;1.00;;;15.70;99.90;;;;;;5035727;28;20627;-74
2023/04/06 09:35:22;;;;;;;;;;;16.00;99.90;;;;;;5040749;28;20392;-75
2023/04/06 09:37:51;;;;;;;2.78;0.88;;;16.50;99.50;;;;;;5042628;28;19959;-75
2023/04/06 09:40:18;;;;;;;6.15;1.08;;;16.80;99.10;;;;;;5039008;28;20254;-75
2023/04/06 09:42:53;;;;;;;6.28;1.05;;;17.20;99.50;;;;;;5038500;28;20537;-75
2023/04/06 09:45:20;;;;;;;6.32;1.23;;;17.70;96.10;;;;;;5033681;28;20037;-75
2023/04/06 09:47:46;;;;;;;4.00;1.35;;;17.90;93.40;;;;;;5039880;28;20037;-75
2023/04/06 09:50:13;;;;;;;6.00;1.52;;;17.80;92.30;;;;;;5038528;28;20097;-76
2023/04/06 09:52:53;;;;;;;6.63;1.60;;;17.80;93.80;;;;;;5031639;28;20207;-72
2023/04/06 09:55:42;;;;;;;6.10;1.45;;;17.80;92.30;;;;;;5037004;28;20551;-75
2023/04/06 09:58:12;;;;;;;5.95;1.48;;;17.30;92.60;;;;;;5032694;28;20361;-75
2023/04/06 10:00:51;;;;;;;5.30;1.45;;;17.10;94.30;;;;;;5024558;28;20024;-75
2023/04/06 10:03:52;;;;;;;6.85;1.48;;;17.20;97.00;;;;;;5038699;28;20463;-75
2023/04/06 10:06:21;;;;;;;5.63;1.45;;;16.80;97.40;;;;;;5037516;28;20106;-75
2023/04/06 10:08:49;;;;;;;4.68;1.70;;;16.50;97.40;;;;;;5041498;28;20558;-75
2023/04/06 10:11:16;;;;;;;8.70;1.88;;;16.20;99.90;;;;;;5040016;28;20149;-75
2023/04/06 10:13:42;;;;;;;8.00;2.00;;;15.80;99.90;;;;;;5039802;28;20029;-75
2023/04/06 10:16:08;;;;;;;8.20;1.90;;;15.60;99.90;;;;;;5038405;28;20516;-75
2023/04/06 10:18:34;;;;;;;10.40;2.55;;;15.50;99.90;;;;;;5035287;28;20032;-75
2023/04/06 10:21:12;;;;;;;7.18;2.13;;;15.40;99.90;;;;;;5037475;28;20452;-75
2023/04/06 10:24:14;;;;;;;10.30;2.40;;;15.30;99.90;;;;;;5055292;28;20067;-75
2023/04/06 10:26:39;;;;;;;5.13;1.75;;;15.70;99.90;;;;;;5018371;28;20037;-75
2023/04/06 10:29:06;;;;;;;7.32;2.03;;;15.80;99.90;;;;;;5030247;28;20382;-75
2023/04/06 10:31:32;;;;;;;6.97;2.10;;;16.00;99.90;;;;;;5032072;28;20764;-75
2023/04/06 10:33:59;;;;;;;9.40;2.63;;;16.00;99.90;;;;;;5035778;28;20119;-75
2023/04/06 10:36:27;;;;;;;6.95;2.10;;;16.10;99.90;;;;;;5037057;28;20060;-75
2023/04/06 10:38:58;;;;;;;9.88;2.10;;;16.50;99.90;;;;;;5037018;28;20207;-72
2023/04/06 10:41:31;;;;;;;9.57;2.63;;;17.60;99.90;;;;;;5046041;28;20033;-75
2023/04/06 10:43:57;;;;;;;9.40;2.05;;;18.70;95.30;;;;;;4684562;28;10000039;-73
2023/04/06 10:46:27;;;;;;;5.72;1.60;;;20.40;81.60;;;;;;5030703;28;20040;-75
2023/04/06 10:48:53;;;;;;;5.82;1.73;;;23.20;65.60;;;;;;5033232;28;20021;-72
2023/04/06 10:51:23;;;;;;;3.78;1.40;;;26.60;48.10;;;;;;5037826;28;20436;-72
2023/04/06 10:53:50;;;;;;;4.97;1.40;;;28.40;42.40;;;;;;5033132;28;20372;-72
2023/04/06 10:56:17;;;;;;;6.35;1.50;;;29.70;39.60;;;;;;5039757;28;20029;-72
2023/04/06 10:58:51;;;;;;;4.25;1.08;;;30.10;35.40;;;;;;5037945;28;20033;-72
2023/04/06 11:01:21;;;;;;;4.40;1.23;;;31.00;35.50;;;;;;5033771;28;20096;-72
2023/04/06 11:03:49;;;;;;;4.75;1.42;;;31.80;33.90;;;;;;5031819;28;20029;-71
2023/04/06 11:06:24;;;;;;;3.80;1.17;;;30.00;34.00;;;;;;5039736;28;20037;-73
2023/04/06 11:08:55;;;;;;;4.65;1.35;;;27.90;35.70;;;;;;5036966;28;20040;-72
2023/04/06 11:11:23;;;;;;;3.72;1.58;;;25.90;40.40;;;;;;5038970;28;20135;-72
2023/04/06 11:13:53;;;;;;;8.73;1.58;;;24.50;43.60;;;;;;5044369;28;20055;-73
2023/04/06 11:16:32;;;;;;;6.43;2.03;;;23.10;47.60;;;;;;5038398;28;20163;-73
2023/04/06 11:19:03;;;;;;;5.15;1.65;;;22.40;49.90;;;;;;5038504;28;20403;-73
2023/04/06 11:21:32;;;;;;;;;;;23.70;53.40;;;;;;5040059;28;20096;-72
2023/04/06 11:24:27;;;;;;;4.70;1.35;;;24.70;44.90;;;;;;5036861;28;20385;-72
2023/04/06 11:27:00;;;;;;;4.80;1.33;;;24.10;42.90;;;;;;5037953;28;20044;-73
2023/04/06 11:29:28;;;;;;;6.97;1.35;;;23.20;44.10;;;;;;5040308;28;20067;-73
2023/04/06 11:31:58;;;;;;;5.05;1.25;;;22.00;47.30;;;;;;5037980;28;20032;-73
2023/04/06 11:34:25;;;;;;;4.53;1.33;;;21.00;50.70;;;;;;5037407;28;20037;-73
2023/04/06 11:36:59;;;;;;;3.28;1.45;;;19.90;54.50;;;;;;5039443;28;20070;-73
2023/04/06 11:39:27;;;;;;;5.00;1.67;;;19.30;63.30;;;;;;5052410;28;20159;-75
2023/04/06 11:41:55;;;;;;;6.00;1.70;;;18.90;74.20;;;;;;5034171;28;20060;-72
2023/04/06 11:44:49;;;;;;;5.10;1.55;;;18.60;73.00;;;;;;5032368;28;20489;-72
2023/04/06 11:47:15;;;;;;;6.72;1.38;;;18.30;80.60;;;;;;5036038;28;20044;-72
2023/04/06 11:49:42;;;;;;;5.82;1.60;;;17.80;87.20;;;;;;5035505;28;20538;-72
2023/04/06 11:52:21;;;;;;;4.78;1.58;;;17.60;90.90;;;;;;5029347;28;20470;-75
2023/04/06 11:54:49;;;;;;;7.55;1.80;;;17.60;91.90;;;;;;5026553;28;20025;-75
2023/04/06 11:57:15;;;;;;;3.63;1.60;;;18.10;93.30;;;;;;5038706;28;20029;-75
2023/04/06 11:59:40;;;;;;;7.00;1.63;;;18.70;83.90;;;;;;5039195;28;20037;-75
2023/04/06 12:02:06;;;;;;;3.70;1.23;;;19.80;84.80;;;;;;5037941;28;20870;-72
2023/04/06 12:04:32;;;;;;;4.28;1.25;;;20.60;75.40;;;;;;5041925;28;20052;-72
2023/04/06 12:06:58;;;;;;;5.80;1.27;;;20.50;61.00;;;;;;5030744;28;20478;-75
2023/04/06 12:09:24;;;;;;;3.70;1.30;;;20.70;58.40;;;;;;5039318;28;20028;-75
2023/04/06 12:11:50;;;;;;;3.47;1.25;;;20.70;62.30;;;;;;5038441;28;20135;-72
2023/04/06 12:14:16;;;;;;;4.75;1.52;;;20.50;59.80;;;;;;5036349;28;20112;-72
2023/04/06 12:16:42;;;;;;;2.72;1.20;;;20.30;58.00;;;;;;5024247;28;20137;-72
2023/04/06 12:19:08;;;;;;;4.65;1.08;;;20.00;55.10;;;;;;5025474;28;20025;-72
2023/04/06 12:21:37;;;;;;;3.67;1.10;;;19.80;60.50;;;;;;5037537;28;20526;-73
2023/04/06 12:24:03;;;;;;;4.05;1.30;;;20.00;69.50;;;;;;5034037;28;20022;-73
2023/04/06 12:26:30;;;;;;;3.10;1.10;;;20.00;58.00;;;;;;5023077;28;20867;-73
2023/04/06 12:28:56;;;;;;;4.25;1.10;;;19.90;62.30;;;;;;5034048;28;20516;-73
2023/04/06 12:31:22;;;;;;;2.08;1.00;;;20.70;64.10;;;;;;5037181;28;20127;-73
2023/04/06 12:33:51;;;;;;;5.00;1.10;;;20.60;54.20;;;;;;5036879;28;20025;-72
2023/04/06 12:36:20;;;;;;;7.22;1.20;;;20.10;52.10;;;;;;5035681;28;20124;-73
2023/04/06 12:38:49;;;;;;;3.85;1.02;;;19.70;58.60;;;;;;5042140;28;20397;-73
2023/04/06 12:41:15;;;;;;;3.88;0.95;;;20.30;56.60;;;;;;5027793;28;20187;-73
2023/04/06 12:43:42;;;;;;;4.40;1.20;;;20.30;51.00;;;;;;5018772;28;20119;-73
2023/04/06 12:46:08;;;;;;;3.88;1.42;;;19.90;55.30;;;;;;5026410;28;20110;-72
2023/04/06 12:48:34;;;;;;;4.72;1.50;;;19.80;55.70;;;;;;5029971;28;20484;-72